Time;durP1;ratioP1;P1;durP2;ratioP2;P2;SDS_P1;SDS_P2;PMS_P1;PMS_P2;Temp;Humidity;BMP_temperature;BMP_pressure;BME280_temperature;BME280_humidity;BME280_pressure;Samples;Min_cycle;Max_cycle;Signal;HPM_P1;HPM_P2
2022/07/13 00:00:17;;;;;;;1.70;0.60;;;;;;;19.53;75.20;101947.78;2112268;28;25034;-68
2022/07/13 00:01:19;;;;;;;1.70;0.47;;;;;;;19.52;75.52;101945.13;2104313;28;20083;-68
2022/07/13 00:02:24;;;;;;;0.90;0.60;;;;;;;19.50;75.27;101953.34;2103966;28;24840;-68
2022/07/13 00:03:27;;;;;;;2.83;0.57;;;;;;;19.49;75.75;101961.56;2112845;28;20883;-68
2022/07/13 00:04:28;;;;;;;3.95;0.52;;;;;;;19.48;75.42;101957.09;2113067;28;22985;-68
2022/07/13 00:05:30;;;;;;;0.85;0.50;;;;;;;19.45;75.67;101960.81;2113692;28;20036;-68
2022/07/13 00:06:32;;;;;;;2.17;0.60;;;;;;;19.45;75.90;101966.25;2112899;28;39311;-68
2022/07/13 00:07:35;;;;;;;1.88;0.50;;;;;;;19.44;75.66;101965.38;2113708;28;21796;-68
2022/07/13 00:08:37;;;;;;;1.77;0.60;;;;;;;19.44;74.95;101965.38;2112645;28;34419;-68
2022/07/13 00:09:39;;;;;;;1.00;0.60;;;;;;;19.43;75.29;101955.47;2113738;28;20695;-67
2022/07/13 00:10:43;;;;;;;1.75;0.80;;;;;;;19.44;75.32;101959.94;2113555;28;20040;-68
2022/07/13 00:11:44;;;;;;;3.50;0.70;;;;;;;19.43;75.18;101950.03;2112757;28;37940;-68
2022/07/13 00:12:46;;;;;;;2.95;0.47;;;;;;;19.43;75.09;101946.41;2113209;28;20048;-68
2022/07/13 00:13:48;;;;;;;4.18;0.50;;;;;;;19.42;75.39;101944.66;2113853;28;20040;-68
2022/07/13 00:14:50;;;;;;;2.17;0.70;;;;;;;19.41;75.18;101946.47;2113842;28;22618;-68
2022/07/13 00:15:51;;;;;;;1.77;0.50;;;;;;;19.40;75.46;101939.28;2112586;28;26130;-68
2022/07/13 00:16:53;;;;;;;2.22;0.52;;;;;;;19.40;75.12;101947.44;2112172;28;34580;-68
2022/07/13 00:17:57;;;;;;;1.00;0.45;;;;;;;19.38;75.43;101937.59;2111844;28;31469;-68
2022/07/13 00:18:59;;;;;;;1.20;0.35;;;;;;;19.37;75.52;101949.41;2113059;28;20110;-68
2022/07/13 00:20:02;;;;;;;1.10;0.50;;;;;;;19.37;75.36;101943.97;2113454;28;27820;-68
2022/07/13 00:21:04;;;;;;;1.45;0.40;;;;;;;19.37;75.73;101943.97;2112768;28;37151;-68
2022/07/13 00:22:05;;;;;;;0.60;0.40;;;;;;;19.35;75.30;101944.03;2113296;28;26803;-67
2022/07/13 00:23:07;;;;;;;1.85;0.50;;;;;;;19.33;75.63;101940.50;2112014;28;21532;-68
2022/07/13 00:24:09;;;;;;;1.52;0.50;;;;;;;19.34;75.42;101942.25;2113335;28;26757;-67
2022/07/13 00:25:11;;;;;;;1.42;0.38;;;;;;;19.33;75.71;101943.22;2112894;28;29406;-68
2022/07/13 00:26:12;;;;;;;1.35;0.50;;;;;;;19.33;75.58;101939.66;2113690;28;20774;-68
2022/07/13 00:27:14;;;;;;;1.13;0.55;;;;;;;19.34;75.73;101935.97;2113553;28;20069;-68
2022/07/13 00:28:16;;;;;;;1.25;0.73;;;;;;;19.33;75.71;101937.81;2113255;28;20980;-67
2022/07/13 00:29:18;;;;;;;3.35;0.70;;;;;;;19.31;75.96;101926.13;2113218;28;20139;-67
2022/07/13 00:30:20;;;;;;;1.23;0.50;;;;;;;19.31;75.73;101930.66;2112366;28;20036;-68
2022/07/13 00:31:21;;;;;;;2.80;0.55;;;;;;;19.31;75.44;101936.09;2112966;28;20036;-68
2022/07/13 00:32:25;;;;;;;0.80;0.40;;;;;;;19.31;75.76;101930.66;2114030;28;20040;-68
2022/07/13 00:33:27;;;;;;;0.95;0.50;;;;;;;19.32;75.74;101933.31;2103861;28;20044;-67
2022/07/13 00:34:30;;;;;;;2.40;0.50;;;;;;;19.32;75.62;101930.59;2104350;28;23645;-67
2022/07/13 00:35:33;;;;;;;2.42;0.60;;;;;;;19.31;75.40;101922.50;2113099;28;20032;-68
2022/07/13 00:36:35;;;;;;;2.58;0.73;;;;;;;19.29;75.70;101933.47;2113467;28;20036;-67
2022/07/13 00:37:36;;;;;;;1.98;0.50;;;;;;;19.30;75.72;101924.34;2112109;28;24359;-68
2022/07/13 00:38:38;;;;;;;2.10;0.80;;;;;;;19.30;75.71;101921.63;2104345;28;20876;-68
2022/07/13 00:39:40;;;;;;;1.42;0.40;;;;;;;19.29;75.70;101916.25;2103957;28;20050;-68
2022/07/13 00:40:42;;;;;;;2.65;0.60;;;;;;;19.27;76.00;101916.31;2112745;28;20165;-68
2022/07/13 00:41:49;;;;;;;2.17;0.55;;;;;;;19.26;75.92;101912.75;2113510;28;20040;-68
2022/07/13 00:42:52;;;;;;;1.55;0.60;;;;;;;19.25;76.04;101912.81;2113228;28;31435;-68
2022/07/13 00:44:09;;;;;;;1.27;0.98;;;;;;;19.24;76.00;101908.34;2112608;28;20854;-68
2022/07/13 00:45:14;;;;;;;1.60;0.65;;;;;;;19.24;76.07;101908.34;2113302;28;20161;-68
2022/07/13 00:46:20;;;;;;;2.42;0.65;;;;;;;19.24;76.26;101909.22;2103647;28;20176;-68
2022/07/13 00:47:23;;;;;;;1.30;0.60;;;;;;;19.23;76.46;101912.00;2095778;28;26781;-68
2022/07/13 00:48:26;;;;;;;3.13;0.75;;;;;;;19.23;76.26;101909.28;2096228;28;20249;-68
2022/07/13 00:49:30;;;;;;;4.00;0.85;;;;;;;19.23;75.97;101898.41;2104776;28;20531;-68
2022/07/13 00:50:33;;;;;;;1.55;0.82;;;;;;;19.22;76.08;101902.06;2111775;28;21557;-68
2022/07/13 00:51:35;;;;;;;2.08;1.00;;;;;;;19.21;76.34;101900.31;2112895;28;20032;-68
2022/07/13 00:52:38;;;;;;;1.90;0.70;;;;;;;19.19;76.62;101897.66;2103591;28;28701;-67
2022/07/13 00:53:39;;;;;;;1.30;1.02;;;;;;;19.18;76.08;101892.31;2104922;28;20033;-68
2022/07/13 00:54:43;;;;;;;1.52;0.70;;;;;;;19.18;76.44;101897.72;2103330;28;26763;-68
2022/07/13 00:55:46;;;;;;;1.40;0.70;;;;;;;19.17;76.98;101890.56;2095031;28;20846;-68
2022/07/13 00:56:48;;;;;;;2.22;1.27;;;;;;;19.17;76.64;101891.44;2096249;28;20971;-68
2022/07/13 00:57:51;;;;;;;1.30;0.73;;;;;;;19.17;76.53;101895.97;2095980;28;20147;-68
2022/07/13 00:58:53;;;;;;;2.10;0.90;;;;;;;19.15;76.36;101903.28;2104725;28;20180;-68
2022/07/13 00:59:55;;;;;;;1.92;0.82;;;;;;;19.15;76.81;101897.84;2113685;28;20136;-68
2022/07/13 01:00:57;;;;;;;3.97;1.25;;;;;;;19.16;77.39;101902.34;2113412;28;20899;-68
2022/07/13 01:02:02;;;;;;;2.38;1.30;;;;;;;19.15;77.10;101895.13;2113427;28;20166;-68
2022/07/13 01:03:04;;;;;;;2.75;1.52;;;;;;;19.16;76.89;101888.78;2111725;28;25089;-68
2022/07/13 01:04:06;;;;;;;1.45;1.20;;;;;;;19.14;76.39;101887.97;2113243;28;20997;-68
2022/07/13 01:05:11;;;;;;;3.42;1.42;;;;;;;19.14;76.60;101886.13;2103995;28;20129;-68
2022/07/13 01:06:17;;;;;;;1.95;1.38;;;;;;;19.15;76.46;101887.00;2104774;28;20126;-68
2022/07/13 01:07:19;;;;;;;2.05;1.20;;;;;;;19.14;76.37;101893.38;2103982;28;20091;-68
2022/07/13 01:08:22;;;;;;;1.20;1.10;;;;;;;19.12;75.96;101888.03;2104663;28;20564;-68
2022/07/13 01:09:25;;;;;;;3.15;1.05;;;;;;;19.12;76.62;101892.59;2103862;28;20450;-68
2022/07/13 01:10:27;;;;;;;2.65;1.17;;;;;;;19.11;77.02;101898.94;2104472;28;20129;-68
2022/07/13 01:11:32;;;;;;;2.63;1.10;;;;;;;19.10;76.62;101897.19;2111968;28;20129;-69
2022/07/13 01:12:36;;;;;;;2.58;1.13;;;;;;;19.10;76.47;101891.78;2113214;28;20040;-68
2022/07/13 01:13:40;;;;;;;2.50;1.27;;;;;;;19.11;76.65;101885.38;2113242;27;20052;-68
2022/07/13 01:14:42;;;;;;;2.33;1.48;;;;;;;19.10;76.93;101879.06;2113977;28;27834;-68
2022/07/13 01:15:44;;;;;;;4.20;1.55;;;;;;;19.08;76.95;101880.97;2113378;28;24426;-68
2022/07/13 01:16:46;;;;;;;4.85;1.40;;;;;;;19.07;77.15;101880.06;2114637;28;20040;-68
2022/07/13 01:17:48;;;;;;;2.50;1.48;;;;;;;19.06;76.80;101878.31;2105148;28;20825;-68
2022/07/13 01:18:51;;;;;;;2.45;1.17;;;;;;;19.06;76.95;101881.03;2105474;28;20099;-68
2022/07/13 01:19:54;;;;;;;3.92;1.70;;;;;;;19.07;77.04;101881.91;2097312;28;20981;-68
2022/07/13 01:20:57;;;;;;;2.72;1.40;;;;;;;19.05;76.83;101881.97;2105738;28;20032;-68
2022/07/13 01:22:01;;;;;;;1.35;1.25;;;;;;;19.04;76.78;101882.94;2105650;28;20045;-68
2022/07/13 01:23:17;;;;;;;4.20;1.45;;;;;;;19.02;77.08;101887.56;2106235;28;20036;-68
2022/07/13 01:24:22;;;;;;;2.33;1.30;;;;;;;19.01;77.00;101885.78;2105390;28;20036;-68
2022/07/13 01:25:24;;;;;;;1.92;1.10;;;;;;;18.99;77.09;101882.25;2105917;28;21309;-68
2022/07/13 01:26:25;;;;;;;1.40;1.30;;;;;;;18.96;77.16;101882.38;2114631;28;20083;-68
2022/07/13 01:27:27;;;;;;;2.00;1.30;;;;;;;18.95;77.15;101880.63;2114077;28;21683;-68
2022/07/13 01:28:34;;;;;;;3.38;1.58;;;;;;;18.94;77.03;101884.28;2105150;28;29054;-68
2022/07/13 01:29:36;;;;;;;3.78;1.27;;;;;;;18.93;77.53;101879.78;2106604;28;20048;-68
2022/07/13 01:30:37;;;;;;;1.65;1.38;;;;;;;18.92;77.50;101886.19;2113247;28;26401;-68
2022/07/13 01:31:40;;;;;;;2.55;1.60;;;;;;;18.91;77.43;101881.69;2105336;28;20178;-68
2022/07/13 01:32:51;;;;;;;2.28;1.20;;;;;;;18.88;77.29;101874.56;2105277;28;22132;-68
2022/07/13 01:33:54;;;;;;;1.60;1.30;;;;;;;18.87;77.24;101880.06;2113421;28;20040;-68
2022/07/13 01:34:55;;;;;;;1.60;1.20;;;;;;;18.86;77.04;101873.75;2114012;28;20861;-68
2022/07/13 01:35:58;;;;;;;2.35;1.75;;;;;;;18.85;77.23;101868.41;2113751;28;20844;-68
2022/07/13 01:37:03;;;;;;;2.30;1.70;;;;;;;18.82;77.75;101869.38;2113589;28;20040;-68
2022/07/13 01:38:05;;;;;;;1.15;1.05;;;;;;;18.81;77.27;101877.59;2096968;28;20180;-68
2022/07/13 01:39:09;;;;;;;2.05;1.58;;;;;;;18.81;78.00;101870.34;2097487;28;20155;-68
2022/07/13 01:40:14;;;;;;;1.55;1.27;;;;;;;18.79;77.84;101868.59;2105072;28;20507;-68
2022/07/13 01:41:18;;;;;;;4.63;1.67;;;;;;;18.79;77.76;101874.03;2114383;28;20890;-68
2022/07/13 01:42:22;;;;;;;2.30;1.10;;;;;;;18.76;77.64;101869.63;2104837;28;20066;-68
2022/07/13 01:43:28;;;;;;;3.22;1.23;;;;;;;18.76;77.96;101869.63;2105750;28;20028;-67
2022/07/13 01:44:30;;;;;;;2.10;1.67;;;;;;;18.75;78.12;101873.28;2104864;28;20163;-68
2022/07/13 01:45:32;;;;;;;1.80;1.70;;;;;;;18.75;78.11;101867.84;2104504;28;21889;-67
2022/07/13 01:46:33;;;;;;;2.63;1.40;;;;;;;18.74;78.04;101870.66;2105174;28;20869;-68
2022/07/13 01:47:40;;;;;;;4.82;1.80;;;;;;;18.73;78.47;101867.03;2113844;28;20079;-68
2022/07/13 01:48:42;;;;;;;2.55;1.45;;;;;;;18.72;78.18;101862.56;2114512;28;20120;-68
2022/07/13 01:49:44;;;;;;;4.55;1.30;;;;;;;18.72;78.22;101867.09;2105471;28;20917;-68
2022/07/13 01:50:46;;;;;;;3.15;1.65;;;;;;;18.70;77.97;101859.06;2104032;28;20040;-68
2022/07/13 01:51:48;;;;;;;3.72;1.80;;;;;;;18.70;78.41;101859.94;2105361;28;20047;-68
2022/07/13 01:52:50;;;;;;;3.55;1.90;;;;;;;18.69;78.21;101866.28;2096424;28;20045;-68
2022/07/13 01:53:52;;;;;;;7.32;1.58;;;;;;;18.69;77.98;101851.84;2096628;28;20033;-68
2022/07/13 01:54:55;;;;;;;2.97;1.58;;;;;;;18.69;78.13;101847.28;2097092;28;20045;-68
2022/07/13 01:55:57;;;;;;;4.32;1.80;;;;;;;18.70;78.06;101845.50;2105562;28;20628;-68
2022/07/13 01:56:59;;;;;;;2.65;1.65;;;;;;;18.72;78.94;101850.81;2113632;28;20072;-68
2022/07/13 01:58:02;;;;;;;2.65;2.15;;;;;;;18.69;78.12;101841.88;2104978;28;20052;-68
2022/07/13 01:59:04;;;;;;;4.60;2.13;;;;;;;18.73;78.31;101841.75;2105281;28;20153;-68
2022/07/13 02:00:14;;;;;;;2.28;1.50;;;;;;;18.72;77.88;101838.16;2105508;28;20117;-68
2022/07/13 02:01:16;;;;;;;4.00;2.35;;;;;;;18.70;78.06;101842.78;2104772;28;37646;-68
2022/07/13 02:02:22;;;;;;;2.70;1.90;;;;;;;18.72;78.30;101839.97;2113689;28;20040;-67
2022/07/13 02:03:25;;;;;;;1.95;1.85;;;;;;;18.70;78.18;101845.50;2113332;28;20141;-67
2022/07/13 02:04:27;;;;;;;2.50;2.30;;;;;;;18.69;78.54;101836.44;2113684;27;20183;-68
2022/07/13 02:05:29;;;;;;;3.35;2.50;;;;;;;18.68;78.47;101839.22;2113621;28;20044;-68
2022/07/13 02:06:34;;;;;;;3.35;2.10;;;;;;;18.68;78.44;101845.56;2105349;28;20881;-68
2022/07/13 02:07:37;;;;;;;3.25;2.03;;;;;;;18.67;78.11;101849.19;2097304;28;20130;-68
2022/07/13 02:08:39;;;;;;;3.42;2.17;;;;;;;18.66;77.94;101831.19;2097073;28;20049;-68
2022/07/13 02:09:47;;;;;;;3.67;2.40;;;;;;;18.64;78.02;101838.47;2097041;28;20041;-67
2022/07/13 02:10:49;;;;;;;3.78;2.30;;;;;;;18.62;78.10;101840.38;2089163;28;20993;-68
2022/07/13 02:11:51;;;;;;;3.28;2.10;;;;;;;18.62;78.34;101843.06;2096184;28;22101;-68
2022/07/13 02:12:52;;;;;;;4.65;2.47;;;;;;;18.63;78.41;101836.72;2114475;28;20048;-68
2022/07/13 02:13:54;;;;;;;3.85;2.03;;;;;;;18.61;78.30;101838.63;2103964;28;20137;-68
2022/07/13 02:15:00;;;;;;;2.25;2.05;;;;;;;18.61;78.28;101838.63;2096383;28;20176;-68
2022/07/13 02:16:02;;;;;;;2.45;2.25;;;;;;;18.60;78.29;101834.13;2105359;28;20101;-68
2022/07/13 02:17:04;;;;;;;2.40;1.67;;;;;;;18.59;78.34;101837.81;2113644;28;21698;-68
2022/07/13 02:18:06;;;;;;;4.10;2.08;;;;;;;18.59;78.16;101839.63;2113438;28;20933;-68
2022/07/13 02:19:08;;;;;;;2.30;2.00;;;;;;;18.58;78.11;101838.75;2104799;28;26773;-68
2022/07/13 02:20:12;;;;;;;3.05;1.98;;;;;;;18.58;78.53;101825.19;2104186;28;20133;-68
2022/07/13 02:21:16;;;;;;;3.97;2.05;;;;;;;18.59;78.06;101826.97;2105020;28;20281;-68
2022/07/13 02:22:18;;;;;;;3.95;2.05;;;;;;;18.58;78.12;101822.47;2104934;28;20477;-68
2022/07/13 02:23:21;;;;;;;2.78;2.08;;;;;;;18.60;78.23;101825.13;2113848;28;20140;-68
2022/07/13 02:24:23;;;;;;;4.25;1.95;;;;;;;18.60;77.94;101825.13;2104998;28;20040;-68
2022/07/13 02:25:25;;;;;;;2.95;2.55;;;;;;;18.59;77.85;101813.41;2104776;28;21495;-68
2022/07/13 02:26:27;;;;;;;3.22;2.45;;;;;;;18.61;78.01;101818.72;2111963;28;39068;-68
2022/07/13 02:27:29;;;;;;;2.42;1.80;;;;;;;18.61;78.01;101816.91;2105032;28;24420;-68
2022/07/13 02:28:31;;;;;;;3.85;1.90;;;;;;;18.62;78.44;101817.78;2096588;28;20037;-68
2022/07/13 02:29:32;;;;;;;3.25;1.70;;;;;;;18.61;78.21;101816.91;2105862;28;20102;-68
2022/07/13 02:30:34;;;;;;;2.03;1.80;;;;;;;18.61;78.00;101821.44;2113539;28;20040;-67
2022/07/13 02:31:36;;;;;;;2.75;2.20;;;;;;;18.60;77.94;101820.56;2104994;28;20048;-68
2022/07/13 02:32:42;;;;;;;3.38;1.90;;;;;;;18.60;77.78;101811.56;2105173;28;20047;-68
2022/07/13 02:33:44;;;;;;;2.63;1.83;;;;;;;18.59;77.99;101810.69;2114502;28;20078;-68
2022/07/13 02:34:47;;;;;;;2.53;1.30;;;;;;;18.58;78.07;101806.19;2113184;28;20825;-67
2022/07/13 02:35:51;;;;;;;2.17;1.90;;;;;;;18.57;78.05;101812.56;2114696;28;20044;-67
2022/07/13 02:36:56;;;;;;;2.03;1.83;;;;;;;18.57;78.17;101812.56;2113375;28;20040;-68
2022/07/13 02:37:58;;;;;;;3.30;1.90;;;;;;;18.59;77.93;101809.78;2113849;28;20155;-68
2022/07/13 02:39:00;;;;;;;2.35;1.85;;;;;;;18.57;77.68;101804.41;2104887;28;20205;-67
2022/07/13 02:40:04;;;;;;;3.17;2.17;;;;;;;18.58;78.07;101811.63;2096881;28;20080;-68
2022/07/13 02:41:06;;;;;;;2.80;2.30;;;;;;;18.60;78.17;101804.28;2105091;28;20066;-68
2022/07/13 02:42:08;;;;;;;2.78;2.00;;;;;;;18.60;77.99;101804.28;2113229;28;24543;-67
2022/07/13 02:43:10;;;;;;;3.38;2.00;;;;;;;18.61;77.75;101797.94;2113198;28;20036;-68
2022/07/13 02:44:12;;;;;;;2.25;2.05;;;;;;;18.61;77.90;101800.66;2104326;28;29386;-68
2022/07/13 02:45:14;;;;;;;2.80;1.85;;;;;;;18.61;77.34;101797.03;2105299;28;20111;-67
2022/07/13 02:46:16;;;;;;;2.00;1.80;;;;;;;18.62;77.73;101798.81;2114056;28;21419;-68
2022/07/13 02:47:21;;;;;;;3.60;2.20;;;;;;;18.63;77.74;101795.16;2104846;28;20111;-68
2022/07/13 02:48:23;;;;;;;4.90;1.90;;;;;;;18.63;77.72;101793.31;2105132;28;20109;-68
2022/07/13 02:49:24;;;;;;;2.75;2.05;;;;;;;18.63;77.73;101796.03;2104785;28;20037;-68
2022/07/13 02:50:27;;;;;;;2.15;1.90;;;;;;;18.62;77.96;101791.53;2096163;28;20843;-68
2022/07/13 02:51:31;;;;;;;1.60;1.50;;;;;;;18.62;77.52;101794.25;2096588;28;20052;-68
2022/07/13 02:52:33;;;;;;;2.70;1.60;;;;;;;18.61;77.83;101795.22;2105611;28;20987;-67
2022/07/13 02:53:35;;;;;;;3.35;1.73;;;;;;;18.61;77.55;101792.50;2104753;28;20048;-68
2022/07/13 02:54:39;;;;;;;3.72;2.30;;;;;;;18.61;77.64;101797.94;2112808;28;31670;-67
2022/07/13 02:55:43;;;;;;;5.70;1.90;;;;;;;18.63;78.37;101797.88;2105086;28;20128;-68
2022/07/13 02:56:45;;;;;;;3.00;1.83;;;;;;;18.61;78.08;101795.22;2097560;28;20270;-68
2022/07/13 02:57:47;;;;;;;2.33;2.13;;;;;;;18.60;77.79;101787.16;2104676;28;20049;-68
2022/07/13 02:58:50;;;;;;;2.33;2.13;;;;;;;18.59;78.01;101797.13;2096749;28;20041;-67
2022/07/13 02:59:52;;;;;;;2.92;1.90;;;;;;;18.58;78.07;101795.34;2087064;28;20780;-68
2022/07/13 03:00:54;;;;;;;2.85;1.90;;;;;;;18.59;78.26;101797.13;2096710;28;20091;-68
2022/07/13 03:01:57;;;;;;;1.90;1.77;;;;;;;18.57;77.94;101793.56;2096303;28;20045;-68
2022/07/13 03:02:59;;;;;;;3.83;1.67;;;;;;;18.56;78.11;101799.09;2096875;28;20037;-67
2022/07/13 03:04:01;;;;;;;1.70;1.60;;;;;;;18.56;77.95;101791.81;2104840;28;20887;-68
2022/07/13 03:05:03;;;;;;;2.33;2.10;;;;;;;18.56;77.82;101785.53;2104638;28;20898;-68
2022/07/13 03:06:05;;;;;;;1.98;1.80;;;;;;;18.55;78.09;101790.03;2087227;28;20045;-67
2022/07/13 03:07:07;;;;;;;3.55;1.67;;;;;;;18.54;77.74;101788.28;2096741;28;20907;-68
2022/07/13 03:08:11;;;;;;;3.88;1.80;;;;;;;18.54;77.97;101788.28;2104678;28;20790;-68
2022/07/13 03:09:13;;;;;;;2.42;1.75;;;;;;;18.53;78.09;101789.22;2096207;28;20033;-68
2022/07/13 03:10:14;;;;;;;2.53;1.52;;;;;;;18.53;78.18;101796.50;2095974;28;20500;-67
2022/07/13 03:11:17;;;;;;;2.85;1.90;;;;;;;18.51;77.88;101791.13;2095695;28;20068;-68
2022/07/13 03:12:19;;;;;;;1.95;1.55;;;;;;;18.49;78.48;101791.19;2096130;28;20133;-67
2022/07/13 03:13:23;;;;;;;2.03;1.90;;;;;;;18.50;78.40;101792.06;2105586;28;20044;-68
2022/07/13 03:14:25;;;;;;;2.58;1.83;;;;;;;18.49;78.36;101795.75;2104990;28;20177;-68
2022/07/13 03:15:27;;;;;;;3.17;1.80;;;;;;;18.48;78.18;101794.88;2104755;28;20110;-68
2022/07/13 03:16:32;;;;;;;1.92;1.70;;;;;;;18.48;77.99;101789.44;2112903;28;20098;-67
2022/07/13 03:17:36;;;;;;;1.95;1.80;;;;;;;18.47;78.24;101798.50;2104706;28;20890;-68
2022/07/13 03:18:41;;;;;;;1.90;1.80;;;;;;;18.49;78.93;101793.03;2103602;28;20045;-68
2022/07/13 03:19:45;;;;;;;3.00;2.47;;;;;;;18.49;78.64;101790.31;2100188;28;20041;-68
2022/07/13 03:20:48;;;;;;;2.70;2.08;;;;;;;18.51;78.60;101794.72;2080210;28;20053;-68
2022/07/13 03:21:50;;;;;;;3.00;2.28;;;;;;;18.52;78.67;101790.19;2080080;28;20196;-68
2022/07/13 03:22:52;;;;;;;2.38;2.17;;;;;;;18.53;78.70;101783.81;2087547;28;20160;-67
2022/07/13 03:23:56;;;;;;;3.47;2.63;;;;;;;18.51;78.93;101777.56;2096213;28;20113;-68
2022/07/13 03:25:03;;;;;;;3.63;2.50;;;;;;;18.51;79.40;101778.44;2088028;28;20045;-68
2022/07/13 03:26:08;;;;;;;4.13;2.80;;;;;;;18.51;79.02;101773.00;2096478;28;20052;-68
2022/07/13 03:27:12;;;;;;;2.33;2.20;;;;;;;18.52;79.06;101771.22;2096987;28;20242;-68
2022/07/13 03:28:15;;;;;;;4.25;2.85;;;;;;;18.53;79.03;101774.78;2097362;28;20072;-67
2022/07/13 03:29:17;;;;;;;4.65;2.60;;;;;;;18.52;79.20;101773.91;2095657;28;20825;-68
2022/07/13 03:30:19;;;;;;;2.67;2.30;;;;;;;18.51;79.07;101778.44;2096863;28;20033;-68
2022/07/13 03:31:21;;;;;;;2.83;2.63;;;;;;;18.52;79.13;101773.91;2096232;28;20909;-67
2022/07/13 03:32:23;;;;;;;3.28;3.05;;;;;;;18.51;79.08;101770.31;2088325;28;21277;-68
2022/07/13 03:33:26;;;;;;;5.57;2.88;;;;;;;18.52;79.45;101771.22;2087896;28;20093;-66
2022/07/13 03:34:28;;;;;;;3.22;2.60;;;;;;;18.53;78.84;101767.53;2087853;28;20100;-67
2022/07/13 03:35:30;;;;;;;2.95;2.63;;;;;;;18.52;78.77;101763.06;2088015;28;20046;-67
2022/07/13 03:36:32;;;;;;;3.00;2.58;;;;;;;18.53;79.19;101764.81;2088363;28;20045;-67
2022/07/13 03:37:37;;;;;;;5.82;2.75;;;;;;;18.53;78.81;101766.66;2096436;28;20037;-67
2022/07/13 03:38:39;;;;;;;2.40;2.20;;;;;;;18.53;78.81;101753.97;2079845;28;20981;-66
2022/07/13 03:39:43;;;;;;;4.10;2.28;;;;;;;18.55;79.02;101754.78;2080037;28;20046;-67
2022/07/13 03:40:45;;;;;;;4.25;2.95;;;;;;;18.56;78.44;101750.25;2104725;28;20121;-68
2022/07/13 03:41:48;;;;;;;2.78;2.58;;;;;;;18.58;78.42;101749.22;2096071;28;20029;-67
2022/07/13 03:42:50;;;;;;;4.38;2.72;;;;;;;18.59;78.71;101739.25;2096673;28;20037;-67
2022/07/13 03:43:52;;;;;;;2.88;2.67;;;;;;;18.60;78.43;101739.19;2103784;28;20040;-67
2022/07/13 03:44:57;;;;;;;3.25;2.92;;;;;;;18.63;78.14;101739.06;2096198;28;20164;-67
2022/07/13 03:46:00;;;;;;;3.22;2.92;;;;;;;18.64;78.12;101729.97;2108287;28;20044;-67
2022/07/13 03:47:04;;;;;;;3.28;2.53;;;;;;;18.65;77.96;101733.59;2104016;28;20049;-67
2022/07/13 03:48:08;;;;;;;3.25;2.63;;;;;;;18.67;77.96;101731.69;2096431;28;20076;-67
2022/07/13 03:49:12;;;;;;;4.45;2.95;;;;;;;18.67;78.04;101734.38;2104376;28;20041;-67
2022/07/13 03:50:16;;;;;;;2.25;2.10;;;;;;;18.67;78.25;101740.69;2097626;28;20118;-67
2022/07/13 03:51:21;;;;;;;2.70;2.30;;;;;;;18.70;77.86;101756.84;2096778;28;20041;-67
2022/07/13 03:52:25;;;;;;;2.50;2.30;;;;;;;18.69;77.71;101771.34;2098083;28;20041;-67
2022/07/13 03:53:27;;;;;;;3.28;2.40;;;;;;;18.71;78.02;101779.41;2104372;28;20049;-67
2022/07/13 03:54:29;;;;;;;3.08;2.50;;;;;;;18.70;77.57;101778.53;2096363;28;20045;-67
2022/07/13 03:55:34;;;;;;;3.90;2.35;;;;;;;18.71;77.96;101779.41;2088184;28;20042;-67
2022/07/13 03:56:39;;;;;;;2.17;1.80;;;;;;;18.72;77.84;101777.56;2086338;28;20861;-67
2022/07/13 03:57:44;;;;;;;2.53;1.90;;;;;;;18.72;77.73;101769.44;2096126;28;20049;-67
2022/07/13 03:58:47;;;;;;;3.22;2.70;;;;;;;18.72;77.29;101772.16;2088601;28;20045;-67
2022/07/13 03:59:50;;;;;;;2.65;2.45;;;;;;;18.72;78.10;101775.75;2087980;28;21007;-66
2022/07/13 04:00:55;;;;;;;3.03;2.53;;;;;;;18.72;77.69;101775.75;2088439;28;20152;-68
2022/07/13 04:01:59;;;;;;;4.25;2.80;;;;;;;18.73;77.66;101777.50;2087619;28;20056;-68
2022/07/13 04:03:01;;;;;;;3.17;2.35;;;;;;;18.74;77.38;101767.56;2096766;28;20852;-67
2022/07/13 04:04:05;;;;;;;2.67;2.47;;;;;;;18.76;77.24;101765.66;2095853;28;20910;-68
2022/07/13 04:05:08;;;;;;;3.38;2.70;;;;;;;18.76;77.50;101765.66;2088254;28;20041;-67
2022/07/13 04:06:14;;;;;;;3.00;2.70;;;;;;;18.78;76.95;101761.03;2088414;28;20255;-67
2022/07/13 04:07:16;;;;;;;3.78;3.10;;;;;;;18.80;76.87;101757.31;2087582;28;20069;-68
2022/07/13 04:08:18;;;;;;;2.28;2.15;;;;;;;18.82;76.62;101751.84;2095827;28;20052;-67
2022/07/13 04:09:20;;;;;;;2.92;2.60;;;;;;;18.81;76.49;101756.41;2090686;28;20087;-68
2022/07/13 04:10:22;;;;;;;3.55;2.45;;;;;;;18.83;76.27;101751.78;2095556;28;20052;-68
2022/07/13 04:11:27;;;;;;;2.92;2.72;;;;;;;18.85;76.40;101749.00;2088241;28;20041;-66
2022/07/13 04:12:29;;;;;;;2.97;2.78;;;;;;;18.87;76.38;101750.69;2088140;28;20041;-66
2022/07/13 04:13:32;;;;;;;3.17;2.83;;;;;;;18.89;76.32;101747.91;2096664;28;20049;-66
2022/07/13 04:14:34;;;;;;;2.83;2.63;;;;;;;18.91;75.79;101740.56;2104094;28;20897;-67
2022/07/13 04:15:36;;;;;;;3.22;2.92;;;;;;;18.93;76.07;101741.38;2096004;28;20172;-67
2022/07/13 04:16:38;;;;;;;2.97;2.78;;;;;;;18.95;75.82;101741.31;2104001;28;20178;-67
2022/07/13 04:17:43;;;;;;;3.10;2.50;;;;;;;18.96;75.61;101741.25;2096252;28;20162;-67
2022/07/13 04:18:46;;;;;;;3.22;2.65;;;;;;;18.96;75.72;101734.94;2096321;28;20828;-67
2022/07/13 04:19:48;;;;;;;2.65;2.45;;;;;;;18.99;76.11;101738.41;2095812;28;21042;-69
2022/07/13 04:20:50;;;;;;;3.03;2.13;;;;;;;19.00;75.74;101736.56;2094427;28;20092;-67
2022/07/13 04:21:54;;;;;;;2.63;2.42;;;;;;;19.01;75.40;101739.22;2097057;28;20037;-66
2022/07/13 04:22:57;;;;;;;3.13;2.60;;;;;;;19.02;75.54;101741.00;2106999;28;20154;-67
2022/07/13 04:23:59;;;;;;;2.85;2.40;;;;;;;19.03;75.51;101731.88;2103277;28;20283;-67
2022/07/13 04:25:05;;;;;;;6.22;2.78;;;;;;;19.04;75.50;101730.03;2095381;28;20037;-67
2022/07/13 04:26:08;;;;;;;3.88;2.55;;;;;;;19.06;75.53;101734.47;2086479;28;20123;-66
2022/07/13 04:27:13;;;;;;;5.43;2.22;;;;;;;19.08;75.39;101727.13;2096115;28;20203;-67
2022/07/13 04:28:15;;;;;;;3.63;3.00;;;;;;;19.10;75.23;101726.19;2095679;28;20045;-67
2022/07/13 04:29:17;;;;;;;3.28;2.70;;;;;;;19.13;74.98;101726.03;2079426;28;20800;-67
2022/07/13 04:30:19;;;;;;;2.72;2.53;;;;;;;19.15;74.90;101730.44;2079786;28;20038;-67
2022/07/13 04:31:22;;;;;;;3.25;2.95;;;;;;;19.18;74.68;101723.97;2079153;28;20050;-67
2022/07/13 04:32:25;;;;;;;3.28;2.97;;;;;;;19.21;74.33;101721.13;2079869;28;20030;-67
2022/07/13 04:33:27;;;;;;;4.15;3.20;;;;;;;19.22;74.14;101721.06;2078903;28;20042;-69
2022/07/13 04:34:32;;;;;;;3.28;3.00;;;;;;;19.26;73.98;101724.50;2079727;28;20122;-67
2022/07/13 04:35:33;;;;;;;3.25;2.95;;;;;;;19.28;73.76;101717.16;2079039;28;20038;-67
2022/07/13 04:36:35;;;;;;;3.38;3.03;;;;;;;19.32;73.46;101723.34;2087741;28;20053;-68
2022/07/13 04:37:37;;;;;;;2.92;2.70;;;;;;;19.34;73.75;101724.13;2079348;28;20099;-67
2022/07/13 04:38:39;;;;;;;6.20;3.03;;;;;;;19.35;73.64;101725.91;2087726;28;25248;-67
2022/07/13 04:39:41;;;;;;;3.90;2.67;;;;;;;19.38;73.46;101723.03;2087234;28;20952;-69
2022/07/13 04:40:45;;;;;;;2.75;2.33;;;;;;;19.41;73.34;101721.06;2079046;28;20042;-69
2022/07/13 04:41:47;;;;;;;2.70;2.50;;;;;;;19.44;73.42;101720.91;2070957;28;20149;-67
2022/07/13 04:42:49;;;;;;;2.72;2.35;;;;;;;19.45;72.86;101719.97;2072023;28;20043;-68
2022/07/13 04:43:53;;;;;;;4.07;2.70;;;;;;;19.50;72.37;101724.31;2087786;28;20049;-68
2022/07/13 04:44:56;;;;;;;2.72;2.38;;;;;;;19.50;72.56;101716.16;2087525;28;20980;-68
2022/07/13 04:45:58;;;;;;;4.07;2.97;;;;;;;19.54;72.91;101715.94;2087537;28;20046;-68
2022/07/13 04:47:03;;;;;;;4.60;2.65;;;;;;;19.57;72.48;101718.50;2087713;28;20042;-67
2022/07/13 04:48:05;;;;;;;3.63;2.28;;;;;;;19.59;72.07;101715.69;2079620;28;20054;-67
2022/07/13 04:49:09;;;;;;;3.80;2.95;;;;;;;19.62;72.14;101718.28;2086781;28;20960;-67
2022/07/13 04:50:11;;;;;;;4.30;2.90;;;;;;;19.64;71.79;101716.38;2088680;28;20881;-67
2022/07/13 04:51:13;;;;;;;3.25;2.92;;;;;;;19.66;72.49;101717.16;2080378;28;20041;-68
2022/07/13 04:52:18;;;;;;;4.22;2.63;;;;;;;19.66;71.80;101709.00;2088923;28;20050;-68